Archival Weather

Annapolis United States Naval

Annapolis United States Naval, Maryland (KNAK)

Report from: Tuesday, June 6, 2023 8:54 AM UTC
Current time: Monday, June 17, 2024 10:25 AM UTC

Current weather – Weather history – Daily summaries
Weather forecast

Temperature15.6°C (60.1°F)
Dew point8.9°C (48.0°F)
Winds 3 kts (1.5 m/s, 3.5 mph) West (280°)
Visibility10 mi. (16.1 km)
Altimeter29.83 in.Hg (1010 mB)
Relative humidity64 %
Density altitude330 ft. (101 m)
Sea-level pressure101.0 kPa (1010 mB, 29.84 in.Hg)
Remarks Fully automated report
System requires maintenance
Automated weather observing station with precipitation discriminator
Pressure falling more slowly
Flight conditions Visual Meteorological Conditions
Raw dataKNAK 060854Z AUTO 28003KT 10SM 16/09 A2983 RMK AO2 SLP104 T01560089 56004 $
An error has occurred. This application may no longer respond until reloaded. Reload 🗙